Time;durP1;ratioP1;P1;durP2;ratioP2;P2;SDS_P1;SDS_P2;PMS_P1;PMS_P2;Temp;Humidity;BMP_temperature;BMP_pressure;BME280_temperature;BME280_humidity;BME280_pressure;Samples;Min_cycle;Max_cycle;Signal;HPM_P1;HPM_P2
2024/03/16 00:00:52;;;;;;;19.15;7.90;;;;;;;-146.25;100.00;52528.38;2096863;28;32326;-61
2024/03/16 00:01:55;;;;;;;18.92;7.70;;;;;;;-146.25;100.00;52469.56;2097271;28;20749;-62
2024/03/16 00:02:59;;;;;;;21.42;8.48;;;;;;;-146.25;100.00;52500.00;2096578;28;34296;-61
2024/03/16 00:04:01;;;;;;;20.65;8.75;;;;;;;-146.25;100.00;52457.41;2096331;28;34726;-62
2024/03/16 00:05:03;;;;;;;19.45;8.98;;;;;;;-146.25;100.00;52502.03;2096682;28;36104;-61
2024/03/16 00:06:05;;;;;;;19.30;8.80;;;;;;;-146.25;100.00;52493.91;2097306;28;20139;-61
2024/03/16 00:07:07;;;;;;;20.75;8.40;;;;;;;-146.25;100.00;52463.50;2097094;28;34833;-62
2024/03/16 00:08:11;;;;;;;19.27;9.20;;;;;;;-146.25;100.00;52495.94;2096811;28;20898;-61
2024/03/16 00:09:14;;;;;;;20.85;9.15;;;;;;;-146.25;100.00;52502.03;2096832;28;33200;-61
2024/03/16 00:10:16;;;;;;;20.55;9.07;;;;;;;-146.25;100.00;52483.78;2096756;28;35176;-61
2024/03/16 00:11:18;;;;;;;17.33;8.82;;;;;;;-146.25;100.00;52502.03;2096420;28;31844;-61
2024/03/16 00:12:22;;;;;;;21.40;8.82;;;;;;;-146.25;100.00;52491.88;2095989;28;28024;-61
2024/03/16 00:13:24;;;;;;;17.30;8.85;;;;;;;-146.25;100.00;52495.94;2097670;28;20037;-62
2024/03/16 00:14:26;;;;;;;19.95;9.65;;;;;;;-146.25;100.00;52467.56;2096661;28;34859;-61
2024/03/16 00:15:27;;;;;;;21.27;9.05;;;;;;;-146.25;100.00;52550.69;2096416;28;35249;-61
2024/03/16 00:16:31;;;;;;;18.88;9.18;;;;;;;-146.25;100.00;52453.34;2097308;28;20833;-61
2024/03/16 00:17:33;;;;;;;17.55;8.55;;;;;;;-146.25;100.00;52491.88;2096923;28;34560;-61
2024/03/16 00:18:36;;;;;;;19.60;9.15;;;;;;;-146.25;100.00;52497.97;2096758;28;33718;-62
2024/03/16 00:19:38;;;;;;;20.80;8.85;;;;;;;-146.25;100.00;52504.03;2096722;28;31355;-61
2024/03/16 00:20:42;;;;;;;26.23;9.45;;;;;;;-146.25;100.00;52514.19;2097380;28;20037;-62
2024/03/16 00:21:45;;;;;;;17.70;8.07;;;;;;;-146.25;100.00;52526.34;2097390;28;20805;-62
2024/03/16 00:22:47;;;;;;;21.27;8.48;;;;;;;-146.25;100.00;52453.34;2096558;28;35034;-62
2024/03/16 00:23:49;;;;;;;23.33;8.45;;;;;;;-146.25;100.00;52463.50;2096580;28;36301;-61
2024/03/16 00:24:50;;;;;;;21.77;8.32;;;;;;;-146.25;100.00;52502.03;2096667;28;20041;-62
2024/03/16 00:25:52;;;;;;;21.35;7.78;;;;;;;-146.25;100.00;52500.00;2095680;28;36168;-61
2024/03/16 00:26:54;;;;;;;20.67;7.97;;;;;;;-146.25;100.00;52508.09;2096841;28;32369;-62
2024/03/16 00:27:56;;;;;;;14.00;7.80;;;;;;;-146.25;100.00;52469.56;2097145;28;20033;-61
2024/03/16 00:28:58;;;;;;;24.90;7.47;;;;;;;-146.25;100.00;52506.06;2097061;28;35009;-61
2024/03/16 00:30:00;;;;;;;19.83;8.02;;;;;;;-146.25;100.00;52534.47;2096928;28;30023;-61
2024/03/16 00:31:03;;;;;;;25.45;8.23;;;;;;;-146.25;100.00;52508.09;2096612;28;31938;-61
2024/03/16 00:32:06;;;;;;;21.77;8.00;;;;;;;-146.25;100.00;52502.03;2096388;28;36259;-63
2024/03/16 00:33:08;;;;;;;18.80;7.63;;;;;;;-146.25;100.00;52497.97;2096564;28;32712;-62
2024/03/16 00:34:13;;;;;;;19.52;7.32;;;;;;;-146.25;100.00;52512.16;2096476;28;33301;-62
2024/03/16 00:35:15;;;;;;;19.42;7.78;;;;;;;-146.25;100.00;52479.72;2096599;28;33949;-62
2024/03/16 00:36:17;;;;;;;19.80;7.70;;;;;;;-146.25;100.00;52512.16;2096429;28;32661;-62
2024/03/16 00:37:19;;;;;;;24.52;8.23;;;;;;;-146.25;100.00;52489.84;2095915;28;32202;-62
2024/03/16 00:38:21;;;;;;;17.45;6.90;;;;;;;-146.25;100.00;52477.69;2096331;28;20056;-61
2024/03/16 00:39:23;;;;;;;20.02;7.20;;;;;;;-146.25;100.00;52508.09;2096559;28;36084;-61
2024/03/16 00:40:25;;;;;;;23.73;7.55;;;;;;;-146.25;100.00;52534.47;2097086;28;20068;-62
2024/03/16 00:41:27;;;;;;;18.25;7.20;;;;;;;-146.25;100.00;52518.25;2096433;28;31433;-62
2024/03/16 00:42:29;;;;;;;21.33;7.90;;;;;;;-146.25;100.00;52467.56;2096441;28;36875;-62
2024/03/16 00:43:30;;;;;;;22.75;7.63;;;;;;;-146.25;100.00;52497.97;2097068;28;20037;-62
2024/03/16 00:44:32;;;;;;;19.02;6.60;;;;;;;-146.25;100.00;52497.97;2097153;28;20990;-61
2024/03/16 00:45:34;;;;;;;23.50;7.15;;;;;;;-146.25;100.00;52477.69;2096207;28;35494;-62
2024/03/16 00:46:36;;;;;;;25.05;7.13;;;;;;;-146.25;100.00;52534.47;2096559;28;33927;-62
2024/03/16 00:47:38;;;;;;;19.65;7.68;;;;;;;-146.25;100.00;52471.59;2096387;28;33529;-62
2024/03/16 00:48:40;;;;;;;21.58;7.22;;;;;;;-146.25;100.00;52491.88;2095789;28;33554;-62
2024/03/16 00:49:42;;;;;;;18.90;7.22;;;;;;;-146.25;100.00;52487.81;2096810;28;20041;-62
2024/03/16 00:50:43;;;;;;;24.48;7.60;;;;;;;-146.25;100.00;52512.16;2096709;28;33254;-62
2024/03/16 00:51:45;;;;;;;20.55;6.70;;;;;;;-146.25;100.00;52518.25;2096839;28;31947;-62
2024/03/16 00:52:47;;;;;;;20.02;6.97;;;;;;;-146.25;100.00;52453.34;2096404;28;32916;-62
2024/03/16 00:53:49;;;;;;;20.00;7.30;;;;;;;-146.25;100.00;52516.22;2096477;28;37037;-62
2024/03/16 00:54:51;;;;;;;21.25;7.47;;;;;;;-146.25;100.00;52504.03;2096414;28;28788;-62
2024/03/16 00:55:53;;;;;;;20.40;7.15;;;;;;;-146.25;100.00;52530.41;2096629;28;34223;-62
2024/03/16 00:56:54;;;;;;;20.15;6.90;;;;;;;-146.25;100.00;52477.69;2096920;28;23677;-61
2024/03/16 00:57:56;;;;;;;22.17;7.30;;;;;;;-146.25;100.00;52481.75;2096814;28;20161;-63
2024/03/16 00:58:58;;;;;;;23.80;6.93;;;;;;;-146.25;100.00;52502.03;2097021;28;21228;-62
2024/03/16 01:00:03;;;;;;;24.17;7.15;;;;;;;-146.25;100.00;52461.47;2096093;28;31904;-62
2024/03/16 01:01:05;;;;;;;20.35;6.53;;;;;;;-146.25;100.00;52497.97;2095959;28;36927;-62
2024/03/16 01:02:06;;;;;;;21.85;6.90;;;;;;;-146.25;100.00;52536.50;2096934;28;20910;-63
2024/03/16 01:03:09;;;;;;;20.52;6.80;;;;;;;-146.25;100.00;52506.06;2096445;28;34683;-62
2024/03/16 01:04:11;;;;;;;19.70;6.60;;;;;;;-146.25;100.00;52485.81;2095510;28;34086;-62
2024/03/16 01:05:13;;;;;;;22.65;7.10;;;;;;;-146.25;100.00;52514.19;2096586;28;20747;-62
2024/03/16 01:06:15;;;;;;;22.98;6.93;;;;;;;-146.25;100.00;52483.78;2095843;28;35332;-62
2024/03/16 01:07:17;;;;;;;23.45;6.90;;;;;;;-146.25;100.00;52510.13;2087824;28;24925;-62
2024/03/16 01:08:18;;;;;;;23.77;6.95;;;;;;;-146.25;100.00;52510.13;2087654;28;32787;-62
2024/03/16 01:09:20;;;;;;;21.83;6.68;;;;;;;-146.25;100.00;52534.47;2096204;28;35140;-63
2024/03/16 01:10:24;;;;;;;17.40;7.30;;;;;;;-146.25;100.00;52518.25;2095824;28;35223;-62
2024/03/16 01:11:30;;;;;;;22.42;7.00;;;;;;;-146.25;100.00;52491.88;2096239;28;36324;-61
2024/03/16 01:12:33;;;;;;;19.13;6.70;;;;;;;-146.25;100.00;52500.00;2095556;28;32884;-61
2024/03/16 01:13:35;;;;;;;25.08;7.32;;;;;;;-146.25;100.00;52504.03;2096667;28;20897;-62
2024/03/16 01:14:37;;;;;;;20.50;7.30;;;;;;;-146.25;100.00;52495.94;2095906;28;36275;-62
2024/03/16 01:15:41;;;;;;;22.10;6.82;;;;;;;-146.25;100.00;52528.38;2096848;28;20033;-62
2024/03/16 01:16:45;;;;;;;25.67;7.28;;;;;;;-146.25;100.00;52518.25;2096267;28;37794;-62
2024/03/16 01:17:47;;;;;;;19.25;6.85;;;;;;;-146.25;100.00;52532.44;2087344;28;33923;-63
2024/03/16 01:18:49;;;;;;;19.15;7.00;;;;;;;-146.25;100.00;52489.84;2087600;28;35439;-62
2024/03/16 01:19:50;;;;;;;21.10;6.82;;;;;;;-146.25;100.00;52526.34;2096243;28;35611;-62
2024/03/16 01:20:52;;;;;;;19.13;7.22;;;;;;;-146.25;100.00;52497.97;2095688;28;35737;-62
2024/03/16 01:21:54;;;;;;;22.77;7.43;;;;;;;-146.25;100.00;52530.41;2096308;28;35145;-62
2024/03/16 01:22:58;;;;;;;22.20;7.35;;;;;;;-146.25;100.00;52493.91;2096286;28;36835;-63
2024/03/16 01:24:01;;;;;;;23.33;7.25;;;;;;;-146.25;100.00;52512.16;2095951;28;33149;-62
2024/03/16 01:25:03;;;;;;;20.35;6.97;;;;;;;-146.25;100.00;52477.69;2096057;28;36384;-61
2024/03/16 01:26:07;;;;;;;23.35;7.35;;;;;;;-146.25;100.00;52510.13;2097128;28;20034;-61
2024/03/16 01:27:09;;;;;;;21.15;7.20;;;;;;;-146.25;100.00;52514.19;2096145;28;34972;-61
2024/03/16 01:28:13;;;;;;;19.88;6.68;;;;;;;-146.25;100.00;52477.69;2096163;28;33091;-61
2024/03/16 01:29:17;;;;;;;23.05;6.47;;;;;;;-146.25;100.00;52487.81;2096141;28;35895;-61
2024/03/16 01:30:21;;;;;;;18.83;6.68;;;;;;;-146.25;100.00;52512.16;2095856;28;37214;-62
2024/03/16 01:31:26;;;;;;;20.02;6.43;;;;;;;-146.25;100.00;52502.03;2096934;28;20056;-61
2024/03/16 01:32:28;;;;;;;16.92;6.60;;;;;;;-146.25;100.00;52485.81;2096054;28;32581;-61
2024/03/16 01:33:30;;;;;;;17.60;6.57;;;;;;;-146.25;100.00;52500.00;2096287;28;35292;-62
2024/03/16 01:34:31;;;;;;;23.77;6.68;;;;;;;-146.25;100.00;52497.97;2095770;28;34420;-62
2024/03/16 01:35:33;;;;;;;18.20;6.32;;;;;;;-146.25;100.00;52497.97;2096223;28;36075;-61
2024/03/16 01:36:35;;;;;;;23.88;6.93;;;;;;;-146.25;100.00;52536.50;2096528;28;33905;-61
2024/03/16 01:37:37;;;;;;;21.38;6.60;;;;;;;-146.25;100.00;52491.88;2095915;28;34355;-61
2024/03/16 01:38:39;;;;;;;23.75;6.65;;;;;;;-146.25;100.00;52489.84;2096176;28;38150;-61
2024/03/16 01:39:40;;;;;;;21.67;7.30;;;;;;;-146.25;100.00;52512.16;2096279;28;33997;-62
2024/03/16 01:40:43;;;;;;;22.08;7.05;;;;;;;-146.25;100.00;52495.94;2096325;28;37432;-61
2024/03/16 01:42:05;;;;;;;21.38;6.43;;;;;;;-146.25;100.00;52510.13;2095472;28;33858;-61
2024/03/16 01:43:14;;;;;;;20.13;6.45;;;;;;;-146.25;100.00;52485.81;2096789;28;20040;-61
2024/03/16 01:44:21;;;;;;;19.45;7.10;;;;;;;-146.25;100.00;52516.22;2096397;28;37265;-62
2024/03/16 01:45:23;;;;;;;20.70;6.72;;;;;;;-146.25;100.00;52514.19;2095834;28;34444;-62
2024/03/16 01:46:27;;;;;;;20.00;7.00;;;;;;;-146.25;100.00;52542.56;2095671;28;34674;-61
2024/03/16 01:47:31;;;;;;;19.13;6.63;;;;;;;-146.25;100.00;52516.22;2087547;28;20976;-62
2024/03/16 01:48:33;;;;;;;18.38;6.30;;;;;;;-146.25;100.00;52506.06;2088704;28;33166;-61
2024/03/16 01:49:35;;;;;;;21.58;6.93;;;;;;;-146.25;100.00;52504.03;2086839;28;35077;-62
2024/03/16 01:50:40;;;;;;;17.02;6.47;;;;;;;-146.25;100.00;52512.16;2087387;28;32441;-61
2024/03/16 01:51:42;;;;;;;21.60;7.35;;;;;;;-146.25;100.00;52530.41;2095972;28;33971;-61
2024/03/16 01:52:46;;;;;;;19.70;7.47;;;;;;;-146.25;100.00;52542.56;2096684;28;20107;-62
2024/03/16 01:53:48;;;;;;;17.52;6.43;;;;;;;-146.25;100.00;52489.84;2094989;28;36537;-60
2024/03/16 01:54:50;;;;;;;20.70;6.57;;;;;;;-146.25;100.00;52508.09;2095847;28;20935;-61
2024/03/16 01:55:52;;;;;;;20.95;6.85;;;;;;;-146.25;100.00;52528.38;2096052;28;34711;-61
2024/03/16 01:56:54;;;;;;;22.25;6.25;;;;;;;-146.25;100.00;52514.19;2087553;28;28133;-61
2024/03/16 01:57:55;;;;;;;21.42;6.88;;;;;;;-146.25;100.00;52473.63;2087628;28;31905;-61
2024/03/16 01:58:57;;;;;;;22.90;6.32;;;;;;;-146.25;100.00;52506.06;2096115;28;28143;-61
2024/03/16 02:00:01;;;;;;;20.73;6.50;;;;;;;-146.25;100.00;52542.56;2095372;28;20044;-61
2024/03/16 02:01:07;;;;;;;23.85;6.47;;;;;;;-146.25;100.00;52532.44;2095219;28;20041;-61
2024/03/16 02:02:41;;;;;;;18.10;6.35;;;;;;;-146.25;100.00;52508.09;2095471;28;29975;-60
2024/03/16 02:03:46;;;;;;;19.15;6.35;;;;;;;-146.25;100.00;52483.78;2096070;28;33912;-61
2024/03/16 02:04:48;;;;;;;22.45;6.07;;;;;;;-146.25;100.00;52544.59;2096358;28;25996;-61
2024/03/16 02:05:50;;;;;;;24.15;6.28;;;;;;;-146.25;100.00;52502.03;2096176;28;32879;-61
2024/03/16 02:06:52;;;;;;;18.40;6.07;;;;;;;-146.25;100.00;52471.59;2095841;28;36671;-61
2024/03/16 02:07:54;;;;;;;21.35;6.70;;;;;;;-146.25;100.00;52518.25;2095689;28;26681;-60
2024/03/16 02:08:57;;;;;;;22.25;6.55;;;;;;;-146.25;100.00;52475.66;2095409;28;34079;-62
2024/03/16 02:10:05;;;;;;;27.92;7.30;;;;;;;-146.25;100.00;52562.84;2096357;28;23140;-61
2024/03/16 02:11:07;;;;;;;20.50;5.57;;;;;;;-146.25;100.00;52502.03;2087586;28;20772;-61
2024/03/16 02:12:12;;;;;;;27.90;6.88;;;;;;;-146.25;100.00;52502.03;2086517;28;37111;-62
2024/03/16 02:13:14;;;;;;;22.42;6.72;;;;;;;-146.25;100.00;52493.91;2089927;28;30795;-62
2024/03/16 02:14:16;;;;;;;20.60;6.22;;;;;;;-146.25;100.00;52526.34;2091218;28;33606;-61
2024/03/16 02:15:18;;;;;;;22.60;6.72;;;;;;;-146.25;100.00;52528.38;2095132;28;35793;-61
2024/03/16 02:16:23;;;;;;;22.35;6.05;;;;;;;-146.25;100.00;52483.78;2091377;28;20167;-61
2024/03/16 02:17:27;;;;;;;16.40;6.43;;;;;;;-146.25;100.00;52479.72;2088406;28;20045;-61
2024/03/16 02:18:33;;;;;;;22.13;6.40;;;;;;;-146.25;100.00;52487.81;2087604;28;35574;-61
2024/03/16 02:19:35;;;;;;;26.80;6.70;;;;;;;-146.25;100.00;52550.69;2087780;28;33687;-61
2024/03/16 02:20:37;;;;;;;19.73;7.13;;;;;;;-146.25;100.00;52524.31;2078711;28;25977;-62
2024/03/16 02:21:39;;;;;;;22.23;6.68;;;;;;;-146.25;100.00;52479.72;2082239;28;34029;-61
2024/03/16 02:22:43;;;;;;;20.83;6.53;;;;;;;-146.25;100.00;52522.28;2095509;28;38509;-62
2024/03/16 02:23:46;;;;;;;21.92;6.97;;;;;;;-146.25;100.00;52526.34;2095918;28;31567;-61
2024/03/16 02:24:48;;;;;;;26.90;7.15;;;;;;;-146.25;100.00;52524.31;2095375;28;37109;-62
2024/03/16 02:25:50;;;;;;;23.63;6.97;;;;;;;-146.25;100.00;52516.22;2096183;28;20095;-62
2024/03/16 02:26:51;;;;;;;24.63;7.07;;;;;;;-146.25;100.00;52514.19;2095180;28;31995;-61
2024/03/16 02:27:53;;;;;;;26.27;7.50;;;;;;;-146.25;100.00;52514.19;2096044;28;32925;-62
2024/03/16 02:28:55;;;;;;;24.25;6.85;;;;;;;-146.25;100.00;52514.19;2096046;28;32901;-61
2024/03/16 02:29:57;;;;;;;24.02;6.95;;;;;;;-146.25;100.00;52502.03;2095662;28;34417;-61
2024/03/16 02:30:58;;;;;;;23.42;7.15;;;;;;;-146.25;100.00;52497.97;2096414;28;20152;-62
2024/03/16 02:32:07;;;;;;;29.05;7.05;;;;;;;-146.25;100.00;52542.56;2096543;28;20894;-61
2024/03/16 02:33:11;;;;;;;22.77;7.32;;;;;;;-146.25;100.00;52506.06;2096067;28;34929;-61
2024/03/16 02:34:13;;;;;;;23.05;6.97;;;;;;;-146.25;100.00;52556.75;2096207;28;26717;-62
2024/03/16 02:35:15;;;;;;;19.35;6.82;;;;;;;-146.25;100.00;52528.38;2086637;28;35025;-61
2024/03/16 02:36:17;;;;;;;28.13;7.00;;;;;;;-146.25;100.00;52489.84;2078879;28;31908;-61
2024/03/16 02:37:19;;;;;;;25.95;7.20;;;;;;;-146.25;100.00;52512.16;2087069;28;33617;-61
2024/03/16 02:38:21;;;;;;;25.15;7.18;;;;;;;-146.25;100.00;52491.88;2095605;28;36433;-61
2024/03/16 02:39:25;;;;;;;18.58;6.95;;;;;;;-146.25;100.00;52504.03;2095809;28;31089;-61
2024/03/16 02:40:28;;;;;;;25.10;6.95;;;;;;;-146.25;100.00;52489.84;2095343;28;34329;-61
2024/03/16 02:41:29;;;;;;;18.38;7.10;;;;;;;-146.25;100.00;52540.53;2095605;28;35088;-61
2024/03/16 02:42:35;;;;;;;22.55;7.40;;;;;;;-146.25;100.00;52504.03;2095249;28;35017;-61
2024/03/16 02:43:37;;;;;;;26.70;7.45;;;;;;;-146.25;100.00;52562.84;2094943;28;38203;-61
2024/03/16 02:44:41;;;;;;;21.20;6.80;;;;;;;-146.25;100.00;52526.34;2095742;28;29915;-61
2024/03/16 02:45:43;;;;;;;24.15;7.10;;;;;;;-146.25;100.00;52554.75;2094480;28;35337;-60
2024/03/16 02:46:45;;;;;;;30.52;7.63;;;;;;;-146.25;100.00;52485.81;2095149;28;33884;-60
2024/03/16 02:47:47;;;;;;;18.98;7.38;;;;;;;-146.25;100.00;52516.22;2095045;28;31859;-60
2024/03/16 02:48:49;;;;;;;25.73;7.70;;;;;;;-146.25;100.00;52497.97;2095078;28;35439;-61
2024/03/16 02:49:51;;;;;;;23.85;7.57;;;;;;;-146.25;100.00;52534.47;2095570;28;20053;-61
2024/03/16 02:50:52;;;;;;;22.83;8.30;;;;;;;-146.25;100.00;52506.06;2095044;28;20155;-61
2024/03/16 02:51:54;;;;;;;25.35;8.05;;;;;;;-146.25;100.00;52483.78;2095216;28;29953;-61
2024/03/16 02:52:56;;;;;;;22.35;7.88;;;;;;;-146.25;100.00;52473.63;2094839;28;34690;-61
2024/03/16 02:53:58;;;;;;;23.65;8.13;;;;;;;-146.25;100.00;52536.50;2095682;28;20507;-61
2024/03/16 02:55:00;;;;;;;26.30;8.75;;;;;;;-146.25;100.00;52473.63;2094276;28;33145;-61
2024/03/16 02:56:02;;;;;;;19.27;8.25;;;;;;;-146.25;100.00;52550.69;2094073;28;31197;-62
2024/03/16 02:57:04;;;;;;;24.77;7.95;;;;;;;-146.25;100.00;52489.84;2095126;28;34132;-62
2024/03/16 02:58:08;;;;;;;21.25;7.70;;;;;;;-146.25;100.00;52493.91;2095664;28;35279;-61
2024/03/16 02:59:12;;;;;;;22.55;7.85;;;;;;;-146.25;100.00;52516.22;2095566;28;20918;-61
2024/03/16 03:00:16;;;;;;;25.08;8.25;;;;;;;-146.25;100.00;52514.19;2086238;28;34003;-62
2024/03/16 03:01:19;;;;;;;22.20;8.25;;;;;;;-146.25;100.00;52495.94;2087330;28;32319;-62
2024/03/16 03:02:24;;;;;;;25.20;8.85;;;;;;;-146.25;100.00;52497.97;2095707;28;34137;-62
2024/03/16 03:03:26;;;;;;;22.77;8.57;;;;;;;-146.25;100.00;52469.56;2086665;28;34630;-62
2024/03/16 03:04:29;;;;;;;25.20;8.60;;;;;;;-146.25;100.00;52514.19;2087264;28;32479;-62
2024/03/16 03:05:30;;;;;;;23.65;8.45;;;;;;;-146.25;100.00;52481.75;2095485;28;34813;-62
2024/03/16 03:06:33;;;;;;;25.38;8.77;;;;;;;-146.25;100.00;52481.75;2095688;28;34417;-62
2024/03/16 03:07:35;;;;;;;26.38;9.10;;;;;;;-146.25;100.00;52508.09;2095578;28;30281;-61
2024/03/16 03:08:37;;;;;;;26.15;8.93;;;;;;;-146.25;100.00;52514.19;2107385;22;33810;-68
2024/03/16 03:09:38;;;;;;;28.95;8.48;;;;;;;-146.25;100.00;52508.09;2089356;28;35588;-67
2024/03/16 03:10:42;;;;;;;22.33;7.82;;;;;;;-146.25;100.00;52512.16;2086851;28;32188;-68
2024/03/16 03:11:45;;;;;;;25.10;8.45;;;;;;;-146.25;100.00;52520.28;2088523;28;32735;-68
2024/03/16 03:12:47;;;;;;;21.25;9.05;;;;;;;-146.25;100.00;52471.59;2088937;28;33578;-69
2024/03/16 03:13:49;;;;;;;28.42;9.68;;;;;;;-146.25;100.00;52526.34;2089046;28;32255;-67
2024/03/16 03:14:51;;;;;;;28.95;8.85;;;;;;;-146.25;100.00;52506.06;2088165;28;34119;-67
2024/03/16 03:15:52;;;;;;;22.73;8.75;;;;;;;-146.25;100.00;52483.78;2087714;28;36739;-67
2024/03/16 03:16:54;;;;;;;28.55;8.57;;;;;;;-146.25;100.00;52489.84;2089031;28;30775;-67
2024/03/16 03:17:58;;;;;;;25.65;8.82;;;;;;;-146.25;100.00;52512.16;2088723;28;35613;-67
2024/03/16 03:19:00;;;;;;;25.65;9.07;;;;;;;-146.25;100.00;52493.91;2088999;28;33166;-67
2024/03/16 03:20:05;;;;;;;26.50;8.27;;;;;;;-146.25;100.00;52514.19;2088596;28;36390;-67
2024/03/16 03:21:08;;;;;;;29.70;8.95;;;;;;;-146.25;100.00;52518.25;2079366;28;36011;-67
2024/03/16 03:22:12;;;;;;;26.00;8.77;;;;;;;-146.25;100.00;52479.72;2080609;28;34696;-68
2024/03/16 03:23:13;;;;;;;21.30;8.90;;;;;;;-146.25;100.00;52534.47;2088647;28;33198;-67
2024/03/16 03:24:15;;;;;;;27.17;9.50;;;;;;;-146.25;100.00;52493.91;2088937;28;26696;-67
2024/03/16 03:25:18;;;;;;;31.75;9.32;;;;;;;-146.25;100.00;52497.97;2088730;28;34948;-67
2024/03/16 03:26:22;;;;;;;25.90;8.38;;;;;;;-146.25;100.00;52502.03;2080483;28;20910;-67
2024/03/16 03:27:24;;;;;;;23.35;8.50;;;;;;;-146.25;100.00;52518.25;2080740;28;32046;-67
2024/03/16 03:28:26;;;;;;;24.48;8.90;;;;;;;-146.25;100.00;52522.28;2089317;28;33577;-67
2024/03/16 03:29:28;;;;;;;26.25;9.48;;;;;;;-146.25;100.00;52495.94;2088824;28;33961;-67
2024/03/16 03:30:29;;;;;;;27.17;9.13;;;;;;;-146.25;100.00;52524.31;2088458;28;34189;-66
2024/03/16 03:31:32;;;;;;;29.50;9.48;;;;;;;-146.25;100.00;52518.25;2088592;28;31570;-68
2024/03/16 03:32:36;;;;;;;26.30;9.30;;;;;;;-146.25;100.00;52477.69;2079830;28;34444;-67
2024/03/16 03:33:40;;;;;;;26.55;9.55;;;;;;;-146.25;100.00;52520.28;2080035;28;33162;-67
2024/03/16 03:34:41;;;;;;;29.10;8.98;;;;;;;-146.25;100.00;52489.84;2088409;28;37261;-67
2024/03/16 03:35:43;;;;;;;22.77;8.88;;;;;;;-146.25;100.00;52493.91;2088699;28;35095;-67
2024/03/16 03:36:47;;;;;;;25.80;8.43;;;;;;;-146.25;100.00;52493.91;2088703;28;32793;-67
2024/03/16 03:37:49;;;;;;;24.52;9.38;;;;;;;-146.25;100.00;52483.78;2088565;28;37413;-67
2024/03/16 03:38:51;;;;;;;30.63;10.10;;;;;;;-146.25;100.00;52463.50;2088727;28;33412;-67
2024/03/16 03:39:52;;;;;;;30.98;10.07;;;;;;;-146.25;100.00;52540.53;2091642;28;35516;-67
2024/03/16 03:40:57;;;;;;;25.08;10.13;;;;;;;-146.25;100.00;52506.06;2088841;28;31053;-68
2024/03/16 03:42:01;;;;;;;27.88;10.13;;;;;;;-146.25;100.00;52481.75;2088572;28;33933;-66
2024/03/16 03:43:16;;;;;;;26.40;9.98;;;;;;;-146.25;100.00;52485.81;2088472;28;36106;-68
2024/03/16 03:44:23;;;;;;;25.20;10.15;;;;;;;-146.25;100.00;52526.34;2089337;28;20033;-68
2024/03/16 03:45:48;;;;;;;29.30;9.95;;;;;;;-146.25;100.00;52522.28;2088482;28;36560;-68
2024/03/16 03:46:50;;;;;;;32.22;10.15;;;;;;;-146.25;100.00;52522.28;2089610;28;20041;-68
2024/03/16 03:49:25;;;;;;;31.33;10.43;;;;;;;-146.25;100.00;52516.22;2088414;28;34431;-68
2024/03/16 03:50:32;;;;;;;27.33;10.00;;;;;;;-146.25;100.00;52493.91;2088470;28;33407;-68
2024/03/16 03:51:38;;;;;;;28.80;10.30;;;;;;;-146.25;100.00;52514.19;2080757;28;20144;-68
2024/03/16 03:52:40;;;;;;;26.27;10.07;;;;;;;-146.25;100.00;52506.06;2081634;28;32312;-67
2024/03/16 03:53:42;;;;;;;25.13;10.10;;;;;;;-146.25;100.00;52516.22;2088741;28;30240;-67
2024/03/16 03:54:46;;;;;;;20.20;9.30;;;;;;;-146.25;100.00;52491.88;2088430;28;32462;-67
2024/03/16 03:55:48;;;;;;;22.08;9.85;;;;;;;-146.25;100.00;52520.28;2088576;28;30018;-66
2024/03/16 03:56:50;;;;;;;21.13;9.63;;;;;;;-146.25;100.00;52524.31;2088570;28;35720;-66
2024/03/16 03:57:52;;;;;;;22.08;9.63;;;;;;;-146.25;100.00;52502.03;2088620;28;33333;-67
2024/03/16 03:58:58;;;;;;;24.23;9.55;;;;;;;-146.25;100.00;52550.69;2088440;28;35521;-66
2024/03/16 04:00:00;;;;;;;19.60;9.95;;;;;;;-146.25;100.00;52475.66;2088487;28;34875;-69
2024/03/16 04:01:12;;;;;;;24.05;9.82;;;;;;;-146.25;100.00;52467.56;2088583;28;20111;-68
2024/03/16 04:02:14;;;;;;;23.98;9.25;;;;;;;-146.25;100.00;52528.38;2088596;28;35546;-67
2024/03/16 04:03:16;;;;;;;18.20;8.60;;;;;;;-146.25;100.00;52524.31;2088450;28;32356;-67
2024/03/16 04:04:18;;;;;;;16.65;7.53;;;;;;;-146.25;100.00;52467.56;2088747;28;26958;-66
2024/03/16 04:05:22;;;;;;;16.20;7.00;;;;;;;-146.25;100.00;52502.03;2088437;28;35544;-65
2024/03/16 04:06:25;;;;;;;16.98;7.60;;;;;;;-146.25;100.00;52520.28;2079724;28;34544;-66
2024/03/16 04:07:27;;;;;;;15.10;6.57;;;;;;;-146.25;100.00;52473.63;2081150;28;20132;-66
2024/03/16 04:08:29;;;;;;;9.68;5.25;;;;;;;-146.25;100.00;52522.28;2088172;28;37979;-66
2024/03/16 04:09:33;;;;;;;7.97;4.53;;;;;;;-146.25;100.00;52510.13;2088643;28;31680;-65
2024/03/16 04:10:36;;;;;;;9.52;4.43;;;;;;;-146.25;100.00;52522.28;2088364;28;35659;-65
2024/03/16 04:11:39;;;;;;;6.95;3.58;;;;;;;-146.25;100.00;52463.50;2087796;28;35108;-66
2024/03/16 04:12:41;;;;;;;4.97;3.13;;;;;;;-146.25;100.00;52506.06;2089149;28;20159;-66
2024/03/16 04:13:43;;;;;;;6.63;3.13;;;;;;;-146.25;100.00;52520.28;2088235;28;39658;-65
2024/03/16 04:14:46;;;;;;;6.80;2.45;;;;;;;-146.25;100.00;52516.22;2088945;28;32851;-63
2024/03/16 04:15:49;;;;;;;3.63;2.17;;;;;;;-146.25;100.00;52493.91;2088085;28;32654;-66
2024/03/16 04:16:51;;;;;;;6.43;2.15;;;;;;;-146.25;100.00;52489.84;2088338;28;34017;-65
2024/03/16 04:17:53;;;;;;;5.32;1.70;;;;;;;-146.25;100.00;52506.06;2088769;28;20037;-65
2024/03/16 04:18:55;;;;;;;2.60;1.50;;;;;;;-146.25;100.00;52465.53;2088352;28;38001;-66
2024/03/16 04:19:56;;;;;;;5.68;1.55;;;;;;;-146.25;100.00;52481.75;2088125;28;31539;-66
2024/03/16 04:21:01;;;;;;;4.00;1.50;;;;;;;-146.25;100.00;52526.34;2087942;28;34141;-65
2024/03/16 04:22:05;;;;;;;3.83;1.30;;;;;;;-146.25;100.00;52514.19;2079498;28;37973;-66
2024/03/16 04:23:08;;;;;;;4.82;1.55;;;;;;;-146.25;100.00;52528.38;2079914;28;20879;-66
2024/03/16 04:24:10;;;;;;;2.78;1.13;;;;;;;-146.25;100.00;52510.13;2088330;28;37641;-66
2024/03/16 04:25:12;;;;;;;2.85;0.95;;;;;;;-146.25;100.00;52516.22;2088306;28;32650;-66
2024/03/16 04:26:14;;;;;;;2.58;1.08;;;;;;;-146.25;100.00;52481.75;2088252;28;34741;-66
2024/03/16 04:27:18;;;;;;;4.15;1.23;;;;;;;-146.25;100.00;52504.03;2088333;28;36736;-66
2024/03/16 04:28:20;;;;;;;3.13;1.00;;;;;;;-146.25;100.00;52495.94;2089518;28;20038;-65
2024/03/16 04:29:22;;;;;;;3.03;0.88;;;;;;;-146.25;100.00;52516.22;2088185;28;37252;-65
2024/03/16 04:30:24;;;;;;;2.72;0.68;;;;;;;-146.25;100.00;52556.75;2088596;28;33209;-65
2024/03/16 04:31:26;;;;;;;3.58;1.00;;;;;;;-146.25;100.00;52534.47;2088053;28;32805;-66
2024/03/16 04:32:27;;;;;;;2.78;0.80;;;;;;;-146.25;100.00;52520.28;2088100;28;35133;-66
2024/03/16 04:33:30;;;;;;;3.42;0.90;;;;;;;-146.25;100.00;52520.28;2089157;28;20045;-66
2024/03/16 04:34:32;;;;;;;3.30;1.00;;;;;;;-146.25;100.00;52520.28;2088216;28;34009;-65
2024/03/16 04:35:34;;;;;;;2.28;0.80;;;;;;;-146.25;100.00;52506.06;2088319;28;31710;-66
2024/03/16 04:36:36;;;;;;;7.03;0.95;;;;;;;-146.25;100.00;52550.69;2088733;28;30635;-65
2024/03/16 04:37:38;;;;;;;3.50;1.02;;;;;;;-146.25;100.00;52497.97;2087949;28;34053;-65
2024/03/16 04:38:40;;;;;;;6.65;1.48;;;;;;;-146.25;100.00;52502.03;2088207;28;36124;-66
2024/03/16 04:39:43;;;;;;;6.18;1.27;;;;;;;-146.25;100.00;52534.47;2088216;28;32737;-66
2024/03/16 04:40:45;;;;;;;5.32;1.52;;;;;;;-146.25;100.00;52528.38;2088314;28;35080;-66
2024/03/16 04:41:50;;;;;;;6.03;1.73;;;;;;;-146.25;100.00;52493.91;2088812;28;20854;-66
2024/03/16 04:42:52;;;;;;;9.30;2.13;;;;;;;-146.25;100.00;52528.38;2087875;28;35785;-66
2024/03/16 04:43:54;;;;;;;4.15;2.13;;;;;;;-146.25;100.00;52516.22;2088364;28;33567;-66
2024/03/16 04:44:55;;;;;;;3.15;1.48;;;;;;;-146.25;100.00;52540.53;2088337;28;32506;-66